createdAt,value
2023-01-06T00:01:37.940Z,97703.59
2023-01-06T00:04:04.954Z,97699.75
2023-01-06T00:06:32.263Z,97699.34
2023-01-06T00:09:02.163Z,97698.56
2023-01-06T00:11:29.287Z,97697.38
2023-01-06T00:13:56.524Z,97701.25
2023-01-06T00:16:26.342Z,97693.16
2023-01-06T00:18:57.681Z,97676.56
2023-01-06T00:21:27.160Z,97687.00
2023-01-06T00:23:54.244Z,97676.22
2023-01-06T00:26:21.951Z,97678.88
2023-01-06T00:28:52.058Z,97666.94
2023-01-06T00:31:20.914Z,97675.34
2023-01-06T00:33:47.708Z,97675.31
2023-01-06T00:36:16.726Z,97670.34
2023-01-06T00:38:45.503Z,97670.69
2023-01-06T00:41:32.598Z,97667.16
2023-01-06T00:44:02.431Z,97672.88
2023-01-06T00:46:34.706Z,97665.97
2023-01-06T00:49:05.499Z,97678.00
2023-01-06T00:51:36.439Z,97678.00
2023-01-06T00:54:03.662Z,97681.13
2023-01-06T00:56:30.269Z,97674.56
2023-01-06T00:58:56.861Z,97670.72
2023-01-06T01:01:23.527Z,97678.47
2023-01-06T01:03:50.194Z,97671.91
2023-01-06T01:06:16.746Z,97675.00
2023-01-06T01:08:45.622Z,97667.28
2023-01-06T01:11:36.655Z,97664.97
2023-01-06T01:14:03.469Z,97679.25
2023-01-06T01:16:32.582Z,97678.06
2023-01-06T01:19:02.535Z,97686.59
2023-01-06T01:21:29.162Z,97677.75
2023-01-06T01:23:55.751Z,97680.44
2023-01-06T01:26:25.329Z,97679.66
2023-01-06T01:28:54.218Z,97675.00
2023-01-06T01:31:23.304Z,97669.59
2023-01-06T01:33:49.885Z,97671.94
2023-01-06T01:36:19.762Z,97675.75
2023-01-06T01:38:48.581Z,97677.63
2023-01-06T01:41:18.250Z,97666.84
2023-01-06T01:43:58.222Z,97671.84
2023-01-06T01:46:43.664Z,97679.19
2023-01-06T01:49:18.026Z,97677.63
2023-01-06T01:51:48.128Z,97680.72
2023-01-06T01:54:22.612Z,97684.19
2023-01-06T01:56:58.984Z,97679.94
2023-01-06T01:59:31.829Z,97679.56
2023-01-06T02:01:58.620Z,97678.00
2023-01-06T02:04:27.803Z,97670.63
2023-01-06T02:06:55.220Z,97676.81
2023-01-06T02:09:32.839Z,97678.38
2023-01-06T02:11:59.393Z,97671.00
2023-01-06T02:14:29.732Z,97670.59
2023-01-06T02:16:56.225Z,97672.16
2023-01-06T02:19:59.437Z,97665.63
2023-01-06T02:22:44.102Z,97664.44
2023-01-06T02:25:32.478Z,97667.91
2023-01-06T02:28:25.042Z,97667.16
2023-01-06T02:31:13.189Z,97667.53
2023-01-06T02:34:05.611Z,97663.25
2023-01-06T02:36:44.949Z,97660.19
2023-01-06T02:39:39.432Z,97660.16
2023-01-06T02:42:39.873Z,97656.31
2023-01-06T02:45:21.390Z,97649.78
2023-01-06T02:47:57.319Z,97657.88
2023-01-06T02:50:32.806Z,97650.94
2023-01-06T02:53:22.987Z,97655.56
2023-01-06T02:55:53.976Z,97650.16
2023-01-06T02:58:45.147Z,97647.00
2023-01-06T03:01:22.763Z,97646.69
2023-01-06T03:03:51.720Z,97644.00
2023-01-06T03:06:22.504Z,97636.28
2023-01-06T03:08:54.548Z,97640.13
2023-01-06T03:11:28.045Z,97635.91
2023-01-06T03:14:08.747Z,97632.81
2023-01-06T03:16:37.571Z,97633.22
2023-01-06T03:19:06.886Z,97632.44
2023-01-06T03:21:39.959Z,97633.56
2023-01-06T03:24:10.654Z,97630.88
2023-01-06T03:26:46.110Z,97632.81
2023-01-06T03:29:16.523Z,97636.69
2023-01-06T03:31:53.837Z,97637.44
2023-01-06T03:34:25.627Z,97642.84
2023-01-06T03:37:19.388Z,97638.56
2023-01-06T03:39:57.760Z,97642.41
2023-01-06T03:43:01.068Z,97646.22
2023-01-06T03:45:51.513Z,97652.38
2023-01-06T03:48:33.118Z,97650.50
2023-01-06T03:51:01.901Z,97653.59
2023-01-06T03:53:34.611Z,97653.59
2023-01-06T03:56:22.824Z,97651.25
2023-01-06T03:58:57.845Z,97661.25
2023-01-06T04:01:28.424Z,97659.69
2023-01-06T04:03:55.873Z,97663.56
2023-01-06T04:06:23.101Z,97656.63
2023-01-06T04:08:52.516Z,97653.91
2023-01-06T04:11:38.188Z,97646.94
2023-01-06T04:14:04.722Z,97650.06
2023-01-06T04:16:33.781Z,97656.97
2023-01-06T04:19:03.232Z,97655.41
2023-01-06T04:21:32.033Z,97656.63
2023-01-06T04:23:58.621Z,97654.34
2023-01-06T04:26:25.161Z,97656.59
2023-01-06T04:28:51.748Z,97660.44
2023-01-06T04:31:18.725Z,97662.75
2023-01-06T04:33:47.879Z,97661.25
2023-01-06T04:36:15.475Z,97663.19
2023-01-06T04:38:42.186Z,97660.47
2023-01-06T04:41:08.766Z,97650.47
2023-01-06T04:43:35.330Z,97648.13
2023-01-06T04:46:01.982Z,97655.84
2023-01-06T04:48:29.148Z,97651.25
2023-01-06T04:51:09.111Z,97648.53
2023-01-06T04:53:42.141Z,97644.25
2023-01-06T04:56:12.282Z,97641.97
2023-01-06T04:58:39.602Z,97643.88
2023-01-06T05:01:09.160Z,97643.13
2023-01-06T05:03:36.298Z,97645.81
2023-01-06T05:06:10.668Z,97640.03
2023-01-06T05:08:41.595Z,97652.38
2023-01-06T05:11:11.481Z,97653.16
2023-01-06T05:13:43.099Z,97657.81
2023-01-06T05:16:16.665Z,97665.06
2023-01-06T05:18:43.617Z,97658.19
2023-01-06T05:21:10.442Z,97663.97
2023-01-06T05:23:40.263Z,97668.97
2023-01-06T05:26:10.031Z,97667.03
2023-01-06T05:28:36.657Z,97672.44
2023-01-06T05:31:09.055Z,97669.34
2023-01-06T05:33:35.713Z,97673.16
2023-01-06T05:36:10.409Z,97678.56
2023-01-06T05:38:40.051Z,97681.69
2023-01-06T05:41:06.965Z,97678.94
2023-01-06T05:43:36.738Z,97677.03
2023-01-06T05:46:08.222Z,97683.97
2023-01-06T05:48:35.616Z,97690.94
2023-01-06T05:51:07.931Z,97691.69
2023-01-06T05:53:38.983Z,97695.94
2023-01-06T05:56:13.908Z,97692.44
2023-01-06T05:58:43.491Z,97691.28
2023-01-06T06:01:17.528Z,97691.28
2023-01-06T06:03:44.323Z,97695.13
2023-01-06T06:06:13.239Z,97694.38
2023-01-06T06:08:39.826Z,97694.34
2023-01-06T06:11:11.078Z,97693.59
2023-01-06T06:13:38.115Z,97700.16
2023-01-06T06:16:05.025Z,97703.22
2023-01-06T06:18:32.092Z,97695.50
2023-01-06T06:21:04.907Z,97699.34
2023-01-06T06:23:34.014Z,97700.50
2023-01-06T06:26:03.141Z,97705.84
2023-01-06T06:28:37.128Z,97707.41
2023-01-06T06:31:22.040Z,97709.28
2023-01-06T06:33:53.667Z,97708.88
2023-01-06T06:36:20.965Z,97712.34
2023-01-06T06:38:49.046Z,97710.03
2023-01-06T06:41:16.075Z,97714.25
2023-01-06T06:43:42.918Z,97718.50
2023-01-06T06:46:10.874Z,97712.34
2023-01-06T06:48:40.346Z,97709.59
2023-01-06T06:51:11.939Z,97709.63
2023-01-06T06:53:38.866Z,97716.47
2023-01-06T06:56:09.216Z,97702.59
2023-01-06T06:58:37.712Z,97698.75
2023-01-06T07:01:12.152Z,97697.59
2023-01-06T07:03:43.610Z,97702.19
2023-01-06T07:06:15.212Z,97704.50
2023-01-06T07:08:50.158Z,97700.97
2023-01-06T07:11:17.298Z,97699.06
2023-01-06T07:13:44.178Z,97701.75
2023-01-06T07:16:16.218Z,97704.44
2023-01-06T07:18:45.080Z,97709.84
2023-01-06T07:21:11.824Z,97718.66
2023-01-06T07:23:43.349Z,97718.28
2023-01-06T07:26:12.156Z,97719.03
2023-01-06T07:28:38.746Z,97727.50
2023-01-06T07:31:05.475Z,97723.31
2023-01-06T07:33:32.080Z,97732.53
2023-01-06T07:36:00.700Z,97732.19
2023-01-06T07:38:29.645Z,97734.88
2023-01-06T07:41:00.926Z,97730.22
2023-01-06T07:43:27.507Z,97733.28
2023-01-06T07:45:56.537Z,97742.47
2023-01-06T07:48:23.137Z,97737.06
2023-01-06T07:50:52.096Z,97735.88
2023-01-06T07:53:20.814Z,97737.00
2023-01-06T07:55:53.692Z,97732.06
2023-01-06T07:58:28.427Z,97738.63
2023-01-06T08:00:57.240Z,97737.53
2023-01-06T08:03:23.852Z,97745.19
2023-01-06T08:05:52.788Z,97746.38
2023-01-06T08:08:19.460Z,97752.84
2023-01-06T08:10:46.055Z,97754.78
2023-01-06T08:13:15.060Z,97740.94
2023-01-06T08:15:41.731Z,97746.38
2023-01-06T08:18:11.802Z,97745.59
2023-01-06T08:20:43.121Z,97757.16
2023-01-06T08:23:09.709Z,97748.19
2023-01-06T08:25:38.569Z,97746.72
2023-01-06T08:28:05.670Z,97747.94
2023-01-06T08:30:32.842Z,97747.13
2023-01-06T08:33:00.066Z,97751.00
2023-01-06T08:35:27.600Z,97754.88
2023-01-06T08:37:56.256Z,97754.56
2023-01-06T08:40:23.039Z,97755.34
2023-01-06T08:42:51.900Z,97755.44
2023-01-06T08:45:20.665Z,97756.63
2023-01-06T08:47:47.290Z,97753.53
2023-01-06T08:50:13.966Z,97753.53
2023-01-06T08:52:42.678Z,97759.75
2023-01-06T08:55:09.326Z,97752.44
2023-01-06T08:57:35.919Z,97746.59
2023-01-06T09:00:06.312Z,97754.03
2023-01-06T09:02:32.867Z,97757.09
2023-01-06T09:05:04.285Z,97755.94
2023-01-06T09:07:30.917Z,97758.72
2023-01-06T09:10:04.483Z,97751.81
2023-01-06T09:12:31.079Z,97761.06
2023-01-06T09:14:57.711Z,97759.56
2023-01-06T09:17:26.702Z,97760.66
2023-01-06T09:19:53.327Z,97765.72
2023-01-06T09:22:19.879Z,97768.88
2023-01-06T09:24:46.451Z,97756.94
2023-01-06T09:27:15.547Z,97764.28
2023-01-06T09:29:46.596Z,97769.69
2023-01-06T09:32:15.395Z,97757.38
2023-01-06T09:34:41.982Z,97760.09
2023-01-06T09:37:08.585Z,97762.97
2023-01-06T09:39:37.171Z,97771.16
2023-01-06T09:42:41.215Z,97777.28
2023-01-06T09:45:25.946Z,97782.41
2023-01-06T09:47:59.551Z,97786.31
2023-01-06T09:50:43.008Z,97790.22
2023-01-06T09:53:38.896Z,97795.63
2023-01-06T09:56:17.300Z,97797.19
2023-01-06T09:59:02.397Z,97796.41
2023-01-06T10:01:34.474Z,97799.91
2023-01-06T10:04:01.311Z,97792.63
2023-01-06T10:06:39.673Z,97792.22
2023-01-06T10:09:18.123Z,97794.94
2023-01-06T10:12:23.089Z,97781.84
2023-01-06T10:14:58.343Z,97780.28
2023-01-06T10:17:51.245Z,97785.69
2023-01-06T10:20:26.708Z,97782.63
2023-01-06T10:23:14.634Z,97779.53
2023-01-06T10:25:55.289Z,97778.78
2023-01-06T10:28:32.185Z,97774.56
2023-01-06T10:31:03.454Z,97779.56
2023-01-06T10:33:35.313Z,97774.53
2023-01-06T10:36:02.039Z,97771.84
2023-01-06T10:38:39.439Z,97763.34
2023-01-06T10:41:15.839Z,97768.38
2023-01-06T10:43:42.694Z,97764.19
2023-01-06T10:46:15.273Z,97764.94
2023-01-06T10:48:42.127Z,97765.31
2023-01-06T10:51:35.411Z,97772.69
2023-01-06T10:54:09.638Z,97769.22
2023-01-06T10:56:46.241Z,97771.59
2023-01-06T10:59:12.820Z,97775.84
2023-01-06T11:01:54.269Z,97764.69
2023-01-06T11:04:24.119Z,97758.91
2023-01-06T11:06:52.159Z,97755.84
2023-01-06T11:09:35.774Z,97751.19
2023-01-06T11:12:23.054Z,97755.00
2023-01-06T11:15:22.517Z,97755.03
2023-01-06T11:17:51.308Z,97754.25
2023-01-06T11:20:17.941Z,97744.63
2023-01-06T11:22:49.174Z,97741.56
2023-01-06T11:25:30.308Z,97734.19
2023-01-06T11:28:28.244Z,97730.34
2023-01-06T11:31:00.937Z,97723.00
2023-01-06T11:33:29.819Z,97722.63
2023-01-06T11:35:57.732Z,97727.28
2023-01-06T11:38:25.548Z,97721.09
2023-01-06T11:40:53.768Z,97729.59
2023-01-06T11:43:31.553Z,97720.72
2023-01-06T11:46:11.317Z,97717.25
2023-01-06T11:48:48.445Z,97711.06
2023-01-06T11:51:15.592Z,97716.13
2023-01-06T11:53:57.335Z,97716.50
2023-01-06T11:56:24.672Z,97713.44
2023-01-06T11:59:07.767Z,97706.09
2023-01-06T12:01:51.252Z,97695.63
2023-01-06T12:04:37.194Z,97697.97
2023-01-06T12:07:38.530Z,97692.19
2023-01-06T12:10:14.503Z,97695.69
2023-01-06T12:12:43.440Z,97692.59
2023-01-06T12:15:13.746Z,97691.78
2023-01-06T12:17:58.315Z,97689.88
2023-01-06T12:20:32.712Z,97696.03
2023-01-06T12:23:07.761Z,97692.56
2023-01-06T12:25:49.168Z,97686.38
2023-01-06T12:28:23.996Z,97683.28
2023-01-06T12:31:08.483Z,97684.84
2023-01-06T12:33:35.149Z,97687.16
2023-01-06T12:36:22.392Z,97675.19
2023-01-06T12:38:57.334Z,97681.38
2023-01-06T12:41:51.249Z,97683.28
2023-01-06T12:44:26.914Z,97674.03
2023-01-06T12:47:02.500Z,97674.81
2023-01-06T12:49:55.031Z,97672.47
2023-01-06T12:52:34.725Z,97671.72
2023-01-06T12:55:02.738Z,97673.66
2023-01-06T12:57:40.485Z,97668.25
2023-01-06T13:00:10.391Z,97666.31
2023-01-06T13:02:55.369Z,97676.72
2023-01-06T13:05:50.169Z,97669.41
2023-01-06T13:08:46.100Z,97665.13
2023-01-06T13:11:33.941Z,97662.84
2023-01-06T13:14:29.496Z,97659.72
2023-01-06T13:17:03.498Z,97664.38
2023-01-06T13:20:02.719Z,97659.38
2023-01-06T13:22:32.314Z,97656.66
2023-01-06T13:25:20.417Z,97650.09
2023-01-06T13:28:10.118Z,97650.88
2023-01-06T13:31:29.372Z,97650.50
2023-01-06T13:33:59.029Z,97640.47
2023-01-06T13:36:43.646Z,97644.31
2023-01-06T13:39:22.251Z,97641.25
2023-01-06T13:41:56.521Z,97637.75
2023-01-06T13:44:30.452Z,97627.72
2023-01-06T13:47:07.117Z,97631.16
2023-01-06T13:49:34.617Z,97627.72
2023-01-06T13:52:10.012Z,97625.00
2023-01-06T13:54:39.383Z,97621.13
2023-01-06T13:57:29.143Z,97627.72
2023-01-06T14:00:04.965Z,97627.72
2023-01-06T14:02:38.002Z,97626.56
2023-01-06T14:05:28.728Z,97634.28
2023-01-06T14:08:01.077Z,97630.44
2023-01-06T14:10:36.496Z,97624.63
2023-01-06T14:13:07.884Z,97623.06
2023-01-06T14:15:55.538Z,97615.75
2023-01-06T14:18:53.043Z,97616.91
2023-01-06T14:21:28.232Z,97618.47
2023-01-06T14:24:09.145Z,97616.50
2023-01-06T14:26:48.185Z,97616.16
2023-01-06T14:29:39.589Z,97620.38
2023-01-06T14:32:10.522Z,97612.25
2023-01-06T14:34:41.497Z,97610.34
2023-01-06T14:37:17.560Z,97619.97
2023-01-06T14:39:51.555Z,97614.19
2023-01-06T14:42:34.954Z,97619.22
2023-01-06T14:45:17.750Z,97616.91
2023-01-06T14:47:53.035Z,97619.22
2023-01-06T14:50:38.280Z,97620.78
2023-01-06T14:53:42.937Z,97623.47
2023-01-06T14:56:19.575Z,97621.16
2023-01-06T14:58:46.698Z,97615.72
2023-01-06T15:01:37.659Z,97618.03
2023-01-06T15:04:20.012Z,97622.28
2023-01-06T15:06:57.227Z,97623.47
2023-01-06T15:09:23.935Z,97621.13
2023-01-06T15:11:51.931Z,97616.50
2023-01-06T15:14:27.385Z,97618.81
2023-01-06T15:17:00.719Z,97616.88
2023-01-06T15:19:27.603Z,97621.91
2023-01-06T15:21:57.435Z,97620.75
2023-01-06T15:24:28.735Z,97623.06
2023-01-06T15:27:07.385Z,97613.41
2023-01-06T15:29:34.734Z,97604.53
2023-01-06T15:32:02.200Z,97608.75
2023-01-06T15:34:43.488Z,97609.53
2023-01-06T15:37:34.809Z,97600.28
2023-01-06T15:40:02.374Z,97605.28
2023-01-06T15:42:32.144Z,97611.84
2023-01-06T15:44:59.734Z,97616.88
2023-01-06T15:47:37.217Z,97611.06
2023-01-06T15:50:09.841Z,97611.84
2023-01-06T15:52:46.996Z,97606.44
2023-01-06T15:55:28.954Z,97597.19
2023-01-06T15:58:20.990Z,97593.69
2023-01-06T16:00:50.978Z,97604.50
2023-01-06T16:03:20.709Z,97594.84
2023-01-06T16:05:51.073Z,97608.78
2023-01-06T16:08:26.083Z,97612.22
2023-01-06T16:11:17.829Z,97609.16
2023-01-06T16:13:58.608Z,97608.75
2023-01-06T16:16:38.115Z,97607.59
2023-01-06T16:19:18.104Z,97616.84
2023-01-06T16:21:47.071Z,97617.63
2023-01-06T16:24:27.702Z,97614.16
2023-01-06T16:27:00.052Z,97623.41
2023-01-06T16:29:29.753Z,97622.25
2023-01-06T16:31:59.186Z,97622.63
2023-01-06T16:34:31.870Z,97624.56
2023-01-06T16:37:04.029Z,97624.53
2023-01-06T16:39:30.689Z,97627.25
2023-01-06T16:42:00.579Z,97620.31
2023-01-06T16:44:29.700Z,97622.25
2023-01-06T16:46:57.123Z,97621.47
2023-01-06T16:49:23.832Z,97621.09
2023-01-06T16:51:52.862Z,97626.50
2023-01-06T16:54:21.679Z,97626.50
2023-01-06T16:56:50.125Z,97631.13
2023-01-06T16:59:22.091Z,97628.81
2023-01-06T17:01:48.778Z,97627.25
2023-01-06T17:04:15.833Z,97633.44
2023-01-06T17:06:44.605Z,97628.81
2023-01-06T17:09:20.887Z,97631.13
2023-01-06T17:11:48.801Z,97621.09
2023-01-06T17:14:21.126Z,97630.72
2023-01-06T17:16:53.489Z,97628.44
2023-01-06T17:19:26.624Z,97631.50
2023-01-06T17:22:21.721Z,97628.44
2023-01-06T17:24:50.822Z,97624.53
2023-01-06T17:27:26.660Z,97632.66
2023-01-06T17:29:55.262Z,97629.59
2023-01-06T17:32:43.594Z,97631.50
2023-01-06T17:35:29.813Z,97628.03
2023-01-06T17:38:02.885Z,97634.59
2023-01-06T17:40:38.475Z,97636.13
2023-01-06T17:43:22.943Z,97642.28
2023-01-06T17:45:49.985Z,97638.81
2023-01-06T17:48:19.137Z,97642.69
2023-01-06T17:50:55.148Z,97640.75
2023-01-06T17:53:49.497Z,97648.88
2023-01-06T17:56:24.265Z,97646.16
2023-01-06T17:58:53.039Z,97645.75
2023-01-06T18:01:24.127Z,97639.97
2023-01-06T18:03:53.978Z,97645.38
2023-01-06T18:06:37.984Z,97643.06
2023-01-06T18:09:04.682Z,97636.84
2023-01-06T18:11:53.031Z,97650.38
2023-01-06T18:14:22.438Z,97652.69
2023-01-06T18:16:52.141Z,97646.16
2023-01-06T18:19:37.484Z,97647.31
2023-01-06T18:22:29.336Z,97648.06
2023-01-06T18:25:00.431Z,97649.97
2023-01-06T18:27:33.464Z,97652.31
2023-01-06T18:30:15.425Z,97652.31
2023-01-06T18:32:43.428Z,97656.91
2023-01-06T18:35:28.734Z,97661.56
2023-01-06T18:38:00.455Z,97659.59
2023-01-06T18:40:27.171Z,97666.56
2023-01-06T18:42:55.911Z,97668.03
2023-01-06T18:45:36.427Z,97659.16
2023-01-06T18:48:12.012Z,97673.06
2023-01-06T18:50:41.820Z,97671.50
2023-01-06T18:53:16.795Z,97669.91
2023-01-06T18:55:51.116Z,97663.41
2023-01-06T18:58:39.009Z,97665.34
2023-01-06T19:01:13.250Z,97663.03
2023-01-06T19:03:47.220Z,97660.34
2023-01-06T19:06:16.624Z,97660.75
2023-01-06T19:08:46.483Z,97658.03
2023-01-06T19:11:25.466Z,97659.59
2023-01-06T19:14:01.658Z,97654.97
2023-01-06T19:16:53.847Z,97660.00
2023-01-06T19:19:53.414Z,97664.22
2023-01-06T19:22:30.118Z,97656.88
2023-01-06T19:25:03.865Z,97655.75
2023-01-06T19:27:35.242Z,97654.97
2023-01-06T19:30:28.225Z,97653.81
2023-01-06T19:32:55.054Z,97651.09
2023-01-06T19:35:27.072Z,97652.25
2023-01-06T19:38:02.836Z,97651.09
2023-01-06T19:40:31.317Z,97652.25
2023-01-06T19:43:06.885Z,97653.03
2023-01-06T19:45:36.684Z,97642.63
2023-01-06T19:48:13.386Z,97646.47
2023-01-06T19:50:39.953Z,97645.31
2023-01-06T19:53:31.539Z,97644.91
2023-01-06T19:56:11.727Z,97645.66
2023-01-06T19:58:43.478Z,97641.81
2023-01-06T20:01:16.829Z,97639.50
2023-01-06T20:03:51.445Z,97637.19
2023-01-06T20:06:23.602Z,97635.28
2023-01-06T20:08:53.510Z,97629.09
2023-01-06T20:11:24.541Z,97631.03
2023-01-06T20:13:53.639Z,97632.94
2023-01-06T20:16:20.349Z,97626.38
2023-01-06T20:18:47.247Z,97626.00
2023-01-06T20:21:13.877Z,97626.00
2023-01-06T20:23:42.699Z,97622.88
2023-01-06T20:26:09.372Z,97618.66
2023-01-06T20:28:36.162Z,97618.69
2023-01-06T20:31:10.149Z,97612.13
2023-01-06T20:33:38.951Z,97621.00
2023-01-06T20:36:08.704Z,97615.19
2023-01-06T20:38:35.373Z,97616.38
2023-01-06T20:41:05.487Z,97609.44
2023-01-06T20:43:34.428Z,97612.91
2023-01-06T20:46:01.124Z,97612.50
2023-01-06T20:48:27.963Z,97608.28
2023-01-06T20:50:55.128Z,97603.25
2023-01-06T20:53:21.791Z,97607.09
2023-01-06T20:55:48.427Z,97605.97
2023-01-06T20:58:15.003Z,97609.44
2023-01-06T21:00:41.758Z,97615.97
2023-01-06T21:03:08.522Z,97608.25
2023-01-06T21:05:37.732Z,97609.03
2023-01-06T21:08:06.774Z,97607.09
2023-01-06T21:10:36.842Z,97595.50
2023-01-06T21:13:05.815Z,97599.38
2023-01-06T21:15:35.148Z,97596.66
2023-01-06T21:18:01.764Z,97597.81
2023-01-06T21:20:30.755Z,97602.06
2023-01-06T21:22:59.945Z,97597.03
2023-01-06T21:25:26.622Z,97592.78
2023-01-06T21:27:55.593Z,97590.47
2023-01-06T21:30:22.863Z,97592.41
2023-01-06T21:32:52.484Z,97585.84
2023-01-06T21:35:21.652Z,97583.53
2023-01-06T21:37:50.473Z,97579.31
2023-01-06T21:40:19.717Z,97575.03
2023-01-06T21:43:04.857Z,97582.38
2023-01-06T21:45:31.478Z,97580.84
2023-01-06T21:47:58.058Z,97570.44
2023-01-06T21:50:28.033Z,97571.97
2023-01-06T21:52:57.002Z,97571.19
2023-01-06T21:55:24.326Z,97576.19
2023-01-06T21:57:51.169Z,97572.34
2023-01-06T22:00:17.897Z,97576.19
2023-01-06T22:02:48.110Z,97576.97
2023-01-06T22:05:15.101Z,97573.13
2023-01-06T22:07:45.435Z,97575.03
2023-01-06T22:10:15.204Z,97578.50
2023-01-06T22:12:43.674Z,97572.72
2023-01-06T22:15:11.823Z,97572.34
2023-01-06T22:17:38.667Z,97578.13
2023-01-06T22:20:06.130Z,97574.28
2023-01-06T22:22:36.744Z,97573.13
2023-01-06T22:25:09.100Z,97564.63
2023-01-06T22:27:38.172Z,97567.72
2023-01-06T22:30:08.081Z,97568.88
2023-01-06T22:32:45.407Z,97566.94
2023-01-06T22:35:16.091Z,97559.91
2023-01-06T22:37:43.077Z,97569.94
2023-01-06T22:40:13.431Z,97568.44
2023-01-06T22:42:40.092Z,97565.75
2023-01-06T22:45:10.914Z,97564.56
2023-01-06T22:47:37.554Z,97564.56
2023-01-06T22:50:05.212Z,97563.44
2023-01-06T22:52:34.122Z,97572.28
2023-01-06T22:55:00.953Z,97562.66
2023-01-06T22:57:29.812Z,97554.53
2023-01-06T23:00:00.200Z,97560.72
2023-01-06T23:02:27.021Z,97562.66
2023-01-06T23:04:53.764Z,97555.72
2023-01-06T23:07:25.320Z,97555.34
2023-01-06T23:09:54.213Z,97543.78
2023-01-06T23:12:25.672Z,97545.69
2023-01-06T23:14:52.329Z,97537.56
2023-01-06T23:17:19.225Z,97537.97
2023-01-06T23:19:45.812Z,97538.75
2023-01-06T23:22:12.409Z,97536.44
2023-01-06T23:24:43.727Z,97537.19
2023-01-06T23:27:13.992Z,97534.88
2023-01-06T23:29:42.847Z,97522.56
2023-01-06T23:32:09.529Z,97531.06
2023-01-06T23:34:39.161Z,97524.88
2023-01-06T23:37:08.298Z,97525.25
2023-01-06T23:39:34.942Z,97521.75
2023-01-06T23:42:01.527Z,97514.06
2023-01-06T23:44:30.559Z,97522.13
2023-01-06T23:46:57.153Z,97518.31
2023-01-06T23:49:26.204Z,97509.06
2023-01-06T23:51:55.495Z,97504.44
2023-01-06T23:54:22.208Z,97502.91
2023-01-06T23:56:53.558Z,97497.50
2023-01-06T23:59:20.125Z,97503.66
